Time;durP1;ratioP1;P1;durP2;ratioP2;P2;SDS_P1;SDS_P2;PMS_P1;PMS_P2;Temp;Humidity;BMP_temperature;BMP_pressure;BME280_temperature;BME280_humidity;BME280_pressure;Samples;Min_cycle;Max_cycle;Signal;HPM_P1;HPM_P2
2024/01/09 00:01:57;;;;;;;1.08;0.93;;;;;;;-143.84;76.29;45290.91;5110876;28;20663;-56
2024/01/09 00:04:24;;;;;;;0.80;0.50;;;;;;;-143.84;76.25;45319.47;5110361;28;20278;-56
2024/01/09 00:06:52;;;;;;;1.30;1.15;;;;;;;-143.84;76.06;45325.19;5110210;28;20193;-56
2024/01/09 00:09:20;;;;;;;0.80;0.50;;;;;;;-143.84;75.83;45311.84;5111058;28;20316;-56
2024/01/09 00:11:47;;;;;;;0.80;0.60;;;;;;;-143.84;75.59;45334.72;5110608;28;20204;-56
2024/01/09 00:14:16;;;;;;;0.80;0.50;;;;;;;-143.84;75.27;45302.34;5110864;28;20197;-55
2024/01/09 00:16:43;;;;;;;0.80;0.50;;;;;;;-143.84;75.35;45273.78;5110298;28;20304;-55
2024/01/09 00:19:10;;;;;;;0.80;0.50;;;;;;;-143.84;75.66;45300.44;5110372;28;20282;-56
2024/01/09 00:21:39;;;;;;;0.80;0.50;;;;;;;-143.84;75.82;45290.91;5110171;28;20244;-56
2024/01/09 00:24:07;;;;;;;1.05;0.95;;;;;;;-143.84;75.98;45302.34;5110336;28;20189;-56
2024/01/09 00:26:42;;;;;;;0.80;0.50;;;;;;;-143.84;75.91;45317.56;5110183;28;20249;-56
2024/01/09 00:29:09;;;;;;;0.80;0.50;;;;;;;-143.84;76.11;45290.91;5110165;28;20193;-56
2024/01/09 00:31:36;;;;;;;0.80;0.70;;;;;;;-143.84;76.31;45315.66;5110059;28;20201;-56
2024/01/09 00:34:03;;;;;;;0.80;0.50;;;;;;;-143.84;76.31;45308.03;5110096;28;20223;-57
2024/01/09 00:36:31;;;;;;;3.75;2.05;;;;;;;-143.84;76.00;45309.94;5109887;28;20254;-56
2024/01/09 00:38:58;;;;;;;0.80;0.50;;;;;;;-143.84;75.36;45317.56;5109991;28;20220;-57
2024/01/09 00:41:25;;;;;;;1.30;0.90;;;;;;;-143.84;75.36;45323.28;5109582;28;20201;-56
2024/01/09 00:43:53;;;;;;;0.80;0.50;;;;;;;-143.84;75.21;45313.75;5110594;28;20268;-56
2024/01/09 00:46:20;;;;;;;0.80;0.55;;;;;;;-143.84;75.72;45317.56;5109615;28;20254;-56
2024/01/09 00:48:47;;;;;;;0.80;0.60;;;;;;;-143.84;75.83;45317.56;5109830;28;20197;-56
2024/01/09 00:51:15;;;;;;;0.80;0.55;;;;;;;-143.84;76.14;45298.53;5109801;28;20197;-56
2024/01/09 00:53:42;;;;;;;1.30;1.20;;;;;;;-143.84;76.17;45327.09;5109603;28;20193;-56
2024/01/09 00:56:09;;;;;;;0.80;0.50;;;;;;;-143.84;76.04;45281.38;5109669;28;20225;-56
2024/01/09 00:58:36;;;;;;;1.65;1.40;;;;;;;-143.84;75.86;45327.09;5109828;28;20547;-56
2024/01/09 01:01:05;;;;;;;0.80;0.50;;;;;;;-143.84;75.56;45327.09;5109540;28;20200;-56
2024/01/09 01:03:32;;;;;;;0.80;0.70;;;;;;;-143.84;75.46;45327.09;5109776;28;20197;-56
2024/01/09 01:05:59;;;;;;;0.80;0.60;;;;;;;-143.84;75.42;45327.09;5109680;28;20205;-56
2024/01/09 01:08:26;;;;;;;0.80;0.52;;;;;;;-143.84;75.80;45329.00;5109931;28;20608;-56
2024/01/09 01:10:54;;;;;;;0.80;0.47;;;;;;;-143.84;76.00;45325.19;5109517;28;20229;-56
2024/01/09 01:13:22;;;;;;;0.80;0.50;;;;;;;-143.84;75.92;45336.59;5109499;28;20201;-56
2024/01/09 01:15:49;;;;;;;1.30;0.82;;;;;;;-143.84;76.00;45329.00;5108978;28;21057;-55
2024/01/09 01:18:17;;;;;;;0.80;0.50;;;;;;;-143.84;76.00;45319.47;5109665;28;20213;-56
2024/01/09 01:20:45;;;;;;;0.80;0.50;;;;;;;-143.84;76.24;45290.91;5109337;28;20305;-56
2024/01/09 01:23:12;;;;;;;0.80;0.50;;;;;;;-143.84;76.47;45325.19;5109542;28;20659;-55
2024/01/09 01:25:39;;;;;;;0.93;0.60;;;;;;;-143.84;76.46;45306.13;5109801;28;20236;-56
2024/01/09 01:28:07;;;;;;;0.80;0.50;;;;;;;-143.84;77.04;45315.66;5109305;28;20258;-56
2024/01/09 01:30:34;;;;;;;2.55;1.77;;;;;;;-143.84;76.80;45319.47;5109224;28;20193;-56
2024/01/09 01:33:01;;;;;;;1.30;1.17;;;;;;;-143.84;76.59;45290.91;5109180;28;20215;-56
2024/01/09 01:35:29;;;;;;;1.00;0.90;;;;;;;-143.84;76.58;45325.19;5109316;28;20205;-56
2024/01/09 01:37:56;;;;;;;0.80;0.60;;;;;;;-143.84;76.52;45304.25;5109183;28;20196;-56
2024/01/09 01:40:24;;;;;;;0.80;0.50;;;;;;;-143.84;76.41;45313.75;5109752;28;20545;-56
2024/01/09 01:42:51;;;;;;;0.80;0.50;;;;;;;-143.84;76.70;45298.53;5109286;28;20193;-56
2024/01/09 01:45:23;;;;;;;0.80;0.50;;;;;;;-143.84;76.82;45294.72;5109013;28;20680;-56
2024/01/09 01:47:51;;;;;;;0.80;0.50;;;;;;;-143.84;76.66;45296.63;5088871;28;20202;-56
2024/01/09 01:50:18;;;;;;;1.35;1.20;;;;;;;-143.84;77.01;45330.91;5088778;28;20288;-56
2024/01/09 01:52:47;;;;;;;0.80;0.50;;;;;;;-143.84;77.31;45298.53;5099389;28;20200;-56
2024/01/09 01:55:15;;;;;;;0.80;0.50;;;;;;;-143.84;77.20;45313.75;5109359;28;20197;-56
2024/01/09 01:57:45;;;;;;;1.27;1.17;;;;;;;-143.84;77.17;45304.25;5109293;28;20794;-56
2024/01/09 02:00:13;;;;;;;0.80;0.50;;;;;;;-143.84;77.28;45332.81;5109097;28;20269;-56
2024/01/09 02:02:41;;;;;;;0.80;0.50;;;;;;;-143.84;77.23;45311.84;5109783;28;20185;-56
2024/01/09 02:05:09;;;;;;;0.80;0.50;;;;;;;-143.84;77.03;45313.75;5109122;28;20205;-56
2024/01/09 02:07:38;;;;;;;1.02;0.93;;;;;;;-143.84;77.12;45315.66;5108946;28;20246;-56
2024/01/09 02:10:07;;;;;;;0.80;0.50;;;;;;;-143.84;76.90;45296.63;5109267;28;20294;-56
2024/01/09 02:12:35;;;;;;;0.80;0.50;;;;;;;-143.84;76.79;45323.28;5108796;28;20212;-56
2024/01/09 02:15:02;;;;;;;0.80;0.55;;;;;;;-143.84;76.55;45313.75;5107824;28;20254;-56
2024/01/09 02:17:29;;;;;;;0.80;0.50;;;;;;;-143.84;76.34;45300.44;5107550;28;20254;-56
2024/01/09 02:19:56;;;;;;;0.80;0.60;;;;;;;-143.84;76.38;45327.09;5108182;28;20266;-56
2024/01/09 02:22:24;;;;;;;0.90;0.70;;;;;;;-143.84;76.82;45298.53;5108283;28;20201;-55
2024/01/09 02:24:51;;;;;;;0.80;0.50;;;;;;;-143.84;76.86;45332.81;5108351;28;20189;-56
2024/01/09 02:27:28;;;;;;;0.80;0.77;;;;;;;-143.84;76.17;45296.63;5108416;28;20201;-56
2024/01/09 02:29:56;;;;;;;0.90;0.77;;;;;;;-143.84;76.60;45330.91;5112248;28;20253;-56
2024/01/09 02:32:24;;;;;;;0.80;0.50;;;;;;;-143.84;76.21;45309.94;5112587;28;20201;-55
2024/01/09 02:34:51;;;;;;;0.80;0.50;;;;;;;-143.84;75.87;45294.72;5112216;28;20743;-56
2024/01/09 02:37:19;;;;;;;1.20;1.02;;;;;;;-143.84;74.93;45329.00;5111880;28;20217;-56
2024/01/09 02:39:46;;;;;;;0.80;0.50;;;;;;;-143.84;74.90;45340.41;5111721;28;20201;-56
2024/01/09 02:42:14;;;;;;;0.80;0.50;;;;;;;-143.84;74.78;45283.28;5112007;28;20632;-55
2024/01/09 02:44:41;;;;;;;0.80;0.50;;;;;;;-143.84;74.84;45313.75;5112250;28;20193;-56
2024/01/09 02:47:09;;;;;;;0.80;0.60;;;;;;;-143.84;74.83;45298.53;5111610;28;20255;-56
2024/01/09 02:49:37;;;;;;;0.80;0.50;;;;;;;-143.84;75.18;45346.13;5112492;28;20255;-56
2024/01/09 02:52:04;;;;;;;0.80;0.50;;;;;;;-143.84;75.13;45319.47;5112263;28;20200;-55
2024/01/09 02:54:31;;;;;;;1.02;0.93;;;;;;;-143.84;75.48;45308.03;5112394;28;20213;-56
2024/01/09 02:56:58;;;;;;;2.38;1.95;;;;;;;-143.84;75.68;45300.44;5112132;28;20311;-56
2024/01/09 02:59:26;;;;;;;0.80;0.70;;;;;;;-143.84;75.41;45327.09;5112006;28;20262;-56
2024/01/09 03:01:53;;;;;;;0.80;0.50;;;;;;;-143.84;75.81;45296.63;5112146;28;21006;-55
2024/01/09 03:04:22;;;;;;;0.80;0.55;;;;;;;-143.84;75.87;45315.66;5112269;28;20228;-55
2024/01/09 03:06:49;;;;;;;0.80;0.50;;;;;;;-143.84;75.57;45319.47;5111907;28;20189;-56
2024/01/09 03:09:17;;;;;;;0.80;0.40;;;;;;;-143.84;75.93;45334.72;5112129;28;20250;-56
2024/01/09 03:11:44;;;;;;;0.80;0.60;;;;;;;-143.84;76.09;45296.63;5111887;28;20277;-56
2024/01/09 03:14:12;;;;;;;0.80;0.60;;;;;;;-143.84;75.85;45325.19;5111717;28;20266;-56
2024/01/09 03:16:39;;;;;;;1.33;1.13;;;;;;;-143.84;76.00;45342.31;5111915;28;20248;-56
2024/01/09 03:19:06;;;;;;;0.80;0.70;;;;;;;-143.84;75.89;45300.44;5111412;28;20194;-55
2024/01/09 03:21:35;;;;;;;0.80;0.50;;;;;;;-143.84;75.74;45296.63;5111550;28;20233;-56
2024/01/09 03:24:03;;;;;;;0.80;0.50;;;;;;;-143.84;75.83;45332.81;5111682;28;20193;-56
2024/01/09 03:26:30;;;;;;;0.80;0.50;;;;;;;-143.84;75.85;45313.75;5111581;28;20204;-56
2024/01/09 03:28:58;;;;;;;0.80;0.50;;;;;;;-143.84;75.72;45325.19;5111579;28;20666;-56
2024/01/09 03:31:25;;;;;;;0.80;0.60;;;;;;;-143.84;75.67;45309.94;5111326;28;20193;-55
2024/01/09 03:33:52;;;;;;;1.75;1.52;;;;;;;-143.84;75.78;45298.53;5111242;28;20629;-56
2024/01/09 03:36:19;;;;;;;0.80;0.52;;;;;;;-143.84;75.84;45321.38;5111171;28;20193;-56
2024/01/09 03:38:48;;;;;;;0.80;0.50;;;;;;;-143.84;76.07;45281.38;5111382;28;20200;-56
2024/01/09 03:41:15;;;;;;;2.22;1.20;;;;;;;-143.84;76.15;45319.47;5111381;28;20197;-55
2024/01/09 03:43:42;;;;;;;0.80;0.50;;;;;;;-143.84;76.03;45311.84;5111207;28;20196;-56
2024/01/09 03:46:09;;;;;;;0.80;0.50;;;;;;;-143.84;76.34;45332.81;5111055;28;20197;-56
2024/01/09 03:48:36;;;;;;;0.80;0.57;;;;;;;-143.84;76.24;45330.91;5110999;28;20286;-56
2024/01/09 03:51:04;;;;;;;0.80;0.70;;;;;;;-143.84;76.24;45313.75;5110812;28;20202;-56
2024/01/09 03:53:31;;;;;;;1.80;1.40;;;;;;;-143.84;76.66;45323.28;5111262;28;20588;-56
2024/01/09 03:56:00;;;;;;;0.80;0.60;;;;;;;-143.84;77.06;45327.09;5110703;28;20210;-56
2024/01/09 03:58:27;;;;;;;0.80;0.50;;;;;;;-143.84;76.86;45300.44;5110854;28;20233;-56
2024/01/09 04:00:54;;;;;;;0.80;0.50;;;;;;;-143.84;76.86;45300.44;5110809;28;20204;-56
2024/01/09 04:03:21;;;;;;;0.80;0.50;;;;;;;-143.84;76.66;45340.41;5110949;28;20201;-56
2024/01/09 04:05:48;;;;;;;0.80;0.50;;;;;;;-143.84;76.51;45325.19;5111082;28;20274;-56
2024/01/09 04:08:15;;;;;;;0.80;0.50;;;;;;;-143.84;76.31;45315.66;5110946;28;20270;-56
2024/01/09 04:10:43;;;;;;;0.80;0.50;;;;;;;-143.84;76.40;45311.84;5110681;28;20258;-55
2024/01/09 04:13:11;;;;;;;0.80;0.50;;;;;;;-143.84;76.44;45327.09;5108599;28;20730;-56
2024/01/09 04:15:39;;;;;;;0.80;0.50;;;;;;;-143.84;76.46;45330.91;5109735;28;20201;-55
2024/01/09 04:18:07;;;;;;;0.80;0.55;;;;;;;-143.84;76.85;45311.84;5110553;28;20293;-58
2024/01/09 04:20:35;;;;;;;0.80;0.50;;;;;;;-143.84;77.13;45306.13;5110198;28;20297;-58
2024/01/09 04:23:02;;;;;;;0.80;0.50;;;;;;;-143.84;76.46;45329.00;5110227;28;20205;-58
2024/01/09 04:25:29;;;;;;;0.80;0.50;;;;;;;-143.84;76.69;45292.81;5110662;28;20593;-58
2024/01/09 04:27:56;;;;;;;1.30;0.85;;;;;;;-143.84;76.58;45296.63;5110476;28;20877;-58
2024/01/09 04:30:26;;;;;;;0.80;0.50;;;;;;;-143.84;77.06;45306.13;5110539;28;20197;-58
2024/01/09 04:32:53;;;;;;;0.80;0.50;;;;;;;-143.84;77.26;45330.91;5110524;28;20193;-58
2024/01/09 04:35:20;;;;;;;0.80;0.60;;;;;;;-143.84;77.23;45329.00;5108268;28;20201;-58
2024/01/09 04:37:47;;;;;;;0.80;0.60;;;;;;;-143.84;77.44;45330.91;5089767;28;20217;-58
2024/01/09 04:40:14;;;;;;;0.80;0.50;;;;;;;-143.84;77.18;45315.66;5089590;28;20200;-58
2024/01/09 04:42:42;;;;;;;0.80;0.40;;;;;;;-143.84;76.91;45319.47;5089987;28;20239;-58
2024/01/09 04:45:09;;;;;;;0.80;0.63;;;;;;;-143.84;77.16;45298.53;5089749;28;20235;-58
2024/01/09 04:47:38;;;;;;;0.80;0.50;;;;;;;-143.84;77.61;45349.94;5089747;28;20194;-58
2024/01/09 04:50:07;;;;;;;1.00;0.80;;;;;;;-143.84;77.68;45315.66;5089678;28;20564;-58
2024/01/09 04:52:36;;;;;;;0.80;0.50;;;;;;;-143.84;77.51;45300.44;5098384;28;20658;-58
2024/01/09 04:55:04;;;;;;;0.80;0.50;;;;;;;-143.84;77.73;45323.28;5109612;28;20659;-58
2024/01/09 04:57:31;;;;;;;0.80;0.50;;;;;;;-143.84;77.73;45319.47;5109560;28;20246;-58
2024/01/09 04:59:58;;;;;;;0.80;0.50;;;;;;;-143.84;77.78;45353.75;5110132;28;20722;-59
2024/01/09 05:02:25;;;;;;;0.80;0.50;;;;;;;-143.84;78.37;45334.72;5109660;28;20651;-55
2024/01/09 05:04:53;;;;;;;0.80;0.57;;;;;;;-143.84;78.28;45321.38;5109777;28;20595;-55
2024/01/09 05:07:20;;;;;;;0.80;0.50;;;;;;;-143.84;77.68;45289.00;5109883;28;20193;-56
2024/01/09 05:09:48;;;;;;;0.80;0.50;;;;;;;-143.84;77.59;45308.03;5109478;28;20197;-56
2024/01/09 05:12:15;;;;;;;1.27;0.93;;;;;;;-143.84;77.71;45336.59;5109823;28;20202;-56
2024/01/09 05:14:42;;;;;;;0.80;0.50;;;;;;;-143.84;77.65;45311.84;5109533;28;20201;-56
2024/01/09 05:17:09;;;;;;;0.80;0.50;;;;;;;-143.84;77.69;45309.94;5109372;28;20224;-56
2024/01/09 05:19:36;;;;;;;0.80;0.50;;;;;;;-143.84;77.52;45290.91;5109280;28;20895;-55
2024/01/09 05:22:05;;;;;;;0.80;0.50;;;;;;;-143.84;77.12;45315.66;5109317;28;20262;-55
2024/01/09 05:24:32;;;;;;;2.63;1.33;;;;;;;-143.84;76.62;45313.75;5109789;28;20197;-56
2024/01/09 05:26:59;;;;;;;0.80;0.50;;;;;;;-143.84;76.32;45306.13;5109349;28;20197;-58
2024/01/09 05:29:26;;;;;;;0.80;0.50;;;;;;;-143.84;76.65;45298.53;5109644;28;20278;-58
2024/01/09 05:31:53;;;;;;;0.80;0.60;;;;;;;-143.84;76.70;45296.63;5109551;28;20193;-58
2024/01/09 05:34:20;;;;;;;0.80;0.50;;;;;;;-143.84;76.58;45311.84;5108877;28;20197;-58
2024/01/09 05:36:48;;;;;;;0.80;0.50;;;;;;;-143.84;76.32;45296.63;5108420;28;20193;-59
2024/01/09 05:39:18;;;;;;;0.80;0.50;;;;;;;-143.84;76.67;45315.66;5107996;28;20193;-58
2024/01/09 05:41:45;;;;;;;0.80;0.50;;;;;;;-143.84;76.84;45313.75;5108729;28;20287;-59
2024/01/09 05:44:12;;;;;;;0.80;0.50;;;;;;;-143.84;76.80;45334.72;5108954;28;20573;-58
2024/01/09 05:46:39;;;;;;;0.80;0.50;;;;;;;-143.84;77.12;45329.00;5109435;28;20247;-58
2024/01/09 05:49:06;;;;;;;0.80;0.60;;;;;;;-143.84;77.29;45346.13;5088529;28;20672;-58
2024/01/09 05:51:33;;;;;;;0.80;0.50;;;;;;;-143.84;77.57;45321.38;5088788;28;20193;-58
2024/01/09 05:54:00;;;;;;;0.80;0.50;;;;;;;-143.84;77.49;45327.09;5088647;28;20717;-58
2024/01/09 05:56:29;;;;;;;0.80;0.50;;;;;;;-143.84;77.57;45279.47;5088636;28;20251;-58
2024/01/09 05:58:56;;;;;;;0.80;0.60;;;;;;;-143.84;77.58;45319.47;5088766;28;20226;-56
2024/01/09 06:01:23;;;;;;;0.80;0.50;;;;;;;-143.84;77.07;45323.28;5088707;28;20194;-56
2024/01/09 06:03:51;;;;;;;0.80;0.60;;;;;;;-143.84;77.06;45296.63;5090349;28;20671;-56
2024/01/09 06:06:18;;;;;;;0.80;0.50;;;;;;;-143.84;77.27;45317.56;5092420;28;20202;-56
2024/01/09 06:08:45;;;;;;;0.80;0.50;;;;;;;-143.84;77.44;45311.84;5092880;28;20208;-56
2024/01/09 06:11:12;;;;;;;0.80;0.60;;;;;;;-143.84;77.41;45349.94;5092584;28;20259;-56
2024/01/09 06:13:41;;;;;;;0.80;0.50;;;;;;;-143.84;77.55;45342.31;5092782;28;20206;-56
2024/01/09 06:16:09;;;;;;;0.80;0.50;;;;;;;-143.84;77.12;45329.00;5092464;28;20202;-56
2024/01/09 06:18:36;;;;;;;0.80;0.60;;;;;;;-143.84;76.92;45294.72;5091546;28;20404;-56
2024/01/09 06:21:03;;;;;;;1.50;1.40;;;;;;;-143.84;76.79;45338.50;5091025;28;20294;-56
2024/01/09 06:23:30;;;;;;;0.80;0.50;;;;;;;-143.84;77.07;45332.81;5091656;28;20228;-56
2024/01/09 06:25:57;;;;;;;0.80;0.50;;;;;;;-143.84;77.23;45313.75;5092121;28;20243;-56
2024/01/09 06:28:24;;;;;;;0.80;0.70;;;;;;;-143.84;77.40;45327.09;5091763;28;20206;-56
2024/01/09 06:30:53;;;;;;;1.20;0.90;;;;;;;-143.84;77.71;45287.09;5091574;28;20251;-56
2024/01/09 06:33:20;;;;;;;0.80;0.50;;;;;;;-143.84;78.32;45319.47;5091798;28;20555;-56
2024/01/09 06:35:47;;;;;;;0.80;0.70;;;;;;;-143.84;78.32;45308.03;5091996;28;20194;-56
2024/01/09 06:38:14;;;;;;;0.80;0.50;;;;;;;-143.84;78.42;45336.59;5090603;28;20227;-56
2024/01/09 06:40:42;;;;;;;0.80;0.50;;;;;;;-143.84;78.81;45340.41;5090645;28;20198;-55
2024/01/09 06:43:09;;;;;;;0.80;0.57;;;;;;;-143.84;78.48;45323.28;5091256;28;20206;-56
2024/01/09 06:45:36;;;;;;;0.80;0.60;;;;;;;-143.84;78.88;45311.84;5090908;28;20194;-56
2024/01/09 06:48:06;;;;;;;0.80;0.57;;;;;;;-143.84;79.47;45281.38;5091222;28;20690;-56
2024/01/09 06:50:33;;;;;;;0.80;0.50;;;;;;;-143.84;79.65;45309.94;5091265;28;20198;-56
2024/01/09 06:53:00;;;;;;;1.10;0.80;;;;;;;-143.84;79.22;45327.09;5091344;28;20193;-55
2024/01/09 06:55:28;;;;;;;0.80;0.50;;;;;;;-143.84;79.42;45308.03;5091886;28;20232;-56
2024/01/09 06:57:55;;;;;;;1.08;1.00;;;;;;;-143.84;79.91;45308.03;5091496;28;20221;-56
2024/01/09 07:00:22;;;;;;;0.80;0.50;;;;;;;-143.84;80.19;45294.72;5091431;28;20204;-56
2024/01/09 07:02:49;;;;;;;0.80;0.50;;;;;;;-143.84;80.46;45306.13;5091499;28;20202;-56
2024/01/09 07:05:18;;;;;;;0.80;0.55;;;;;;;-143.84;80.33;45330.91;5091261;28;20255;-55
2024/01/09 07:07:45;;;;;;;0.80;0.50;;;;;;;-143.84;80.39;45308.03;5091298;28;20210;-56
2024/01/09 07:10:12;;;;;;;0.80;0.50;;;;;;;-143.84;80.56;45338.50;5091370;28;20206;-56
2024/01/09 07:12:39;;;;;;;0.80;0.70;;;;;;;-143.84;80.75;45313.75;5091148;28;20281;-56
2024/01/09 07:15:08;;;;;;;0.80;0.50;;;;;;;-143.84;80.44;45330.91;5091017;28;20690;-56
2024/01/09 07:17:35;;;;;;;0.80;0.50;;;;;;;-143.84;80.38;45325.19;5091056;28;20202;-56
2024/01/09 07:20:02;;;;;;;2.88;1.85;;;;;;;-143.84;80.28;45325.19;5090829;28;20682;-56
2024/01/09 07:22:31;;;;;;;0.80;0.55;;;;;;;-143.84;79.88;45313.75;5091209;28;20206;-56
2024/01/09 07:24:58;;;;;;;1.10;0.95;;;;;;;-143.84;80.11;45290.91;5090913;28;20194;-56
2024/01/09 07:27:25;;;;;;;0.80;0.50;;;;;;;-143.84;80.40;45338.50;5090936;28;20259;-56
2024/01/09 07:29:52;;;;;;;1.55;1.13;;;;;;;-143.84;80.56;45306.13;5091318;28;20194;-56
2024/01/09 07:32:20;;;;;;;3.83;2.05;;;;;;;-143.84;80.81;45323.28;5091087;28;20200;-56
2024/01/09 07:34:48;;;;;;;0.80;0.60;;;;;;;-143.84;80.59;45329.00;5090904;28;20194;-56
2024/01/09 07:37:16;;;;;;;1.50;1.35;;;;;;;-143.84;80.47;45325.19;5090921;28;20206;-56
2024/01/09 07:39:44;;;;;;;0.80;0.50;;;;;;;-143.84;80.63;45315.66;5090898;28;20226;-56
2024/01/09 07:42:13;;;;;;;0.80;0.70;;;;;;;-143.84;80.43;45338.50;5090578;28;20194;-56
2024/01/09 07:44:40;;;;;;;0.80;0.60;;;;;;;-143.84;80.79;45311.84;5090741;28;20251;-56
2024/01/09 07:47:10;;;;;;;0.80;0.50;;;;;;;-143.84;80.93;45321.38;5090395;28;20271;-56
2024/01/09 07:49:38;;;;;;;0.80;0.52;;;;;;;-143.84;80.42;45336.59;5090561;28;20233;-56
2024/01/09 07:52:06;;;;;;;0.80;0.50;;;;;;;-143.84;80.55;45321.38;5090390;28;20237;-56
2024/01/09 07:54:33;;;;;;;1.88;1.60;;;;;;;-143.84;80.30;45290.91;5090661;28;20198;-56
2024/01/09 07:57:02;;;;;;;0.80;0.77;;;;;;;-143.84;80.48;45319.47;5090402;28;20250;-55
2024/01/09 07:59:29;;;;;;;0.80;0.50;;;;;;;-143.84;80.65;45317.56;5089754;28;20217;-56
2024/01/09 08:01:57;;;;;;;2.08;1.08;;;;;;;-143.84;80.61;45306.13;5090225;28;20209;-55
2024/01/09 08:04:24;;;;;;;0.80;0.50;;;;;;;-143.84;80.43;45323.28;5109428;28;20205;-55
2024/01/09 08:06:52;;;;;;;0.85;0.73;;;;;;;-143.84;80.06;45294.72;5106308;28;20263;-56
2024/01/09 08:09:19;;;;;;;30.25;2.33;;;;;;;-143.84;79.82;45338.50;5090456;28;20556;-55
2024/01/09 08:11:46;;;;;;;0.80;0.50;;;;;;;-143.84;79.92;45329.00;5090077;28;20194;-56
2024/01/09 08:14:15;;;;;;;3.80;1.15;;;;;;;-143.84;79.76;45308.03;5090197;28;20205;-56
2024/01/09 08:16:43;;;;;;;0.80;0.50;;;;;;;-143.84;80.12;45338.50;5089833;28;20288;-56
2024/01/09 08:19:10;;;;;;;1.58;1.35;;;;;;;-143.84;80.15;45338.50;5089895;28;20279;-56
2024/01/09 08:21:37;;;;;;;0.80;0.57;;;;;;;-143.84;80.30;45313.75;5089806;28;20236;-56
2024/01/09 08:24:05;;;;;;;0.80;0.50;;;;;;;-143.84;79.60;45319.47;5089875;28;20251;-56
2024/01/09 08:26:32;;;;;;;0.80;0.50;;;;;;;-143.84;79.56;45313.75;5088996;28;20244;-56
2024/01/09 08:29:01;;;;;;;0.80;0.50;;;;;;;-143.84;78.65;45329.00;5089852;28;20263;-56
2024/01/09 08:31:30;;;;;;;0.80;0.50;;;;;;;-143.84;79.08;45311.84;5089678;28;20602;-56
2024/01/09 08:33:57;;;;;;;1.10;0.80;;;;;;;-143.84;79.56;45296.63;5089522;28;20197;-55
2024/01/09 08:36:24;;;;;;;0.80;0.70;;;;;;;-143.84;79.45;45336.59;5089335;28;20202;-56
2024/01/09 08:38:51;;;;;;;0.80;0.50;;;;;;;-143.84;79.42;45300.44;5089092;28;20259;-56
2024/01/09 08:41:18;;;;;;;0.80;0.50;;;;;;;-143.84;79.22;45304.25;5088847;28;20223;-56
2024/01/09 08:43:45;;;;;;;0.95;0.85;;;;;;;-143.84;79.16;45296.63;5089366;28;20202;-56
2024/01/09 08:46:12;;;;;;;0.80;0.60;;;;;;;-143.84;79.02;45308.03;5089637;28;20198;-56
2024/01/09 08:48:41;;;;;;;1.58;1.48;;;;;;;-143.84;79.28;45329.00;5089273;28;20669;-56
2024/01/09 08:51:08;;;;;;;0.80;0.50;;;;;;;-143.84;79.41;45327.09;5089538;28;20675;-56
2024/01/09 08:53:36;;;;;;;0.80;0.50;;;;;;;-143.84;79.51;45313.75;5089552;28;20194;-55
2024/01/09 08:56:03;;;;;;;1.10;0.95;;;;;;;-143.84;79.79;45309.94;5089389;28;20198;-56
2024/01/09 08:58:30;;;;;;;3.40;2.55;;;;;;;-143.84;79.99;45325.19;5088767;28;20646;-56
2024/01/09 09:00:57;;;;;;;1.98;1.05;;;;;;;-143.84;80.04;45323.28;5089094;28;20562;-56
2024/01/09 09:03:24;;;;;;;0.80;0.60;;;;;;;-143.84;80.19;45348.03;5089109;28;20201;-55
2024/01/09 09:05:53;;;;;;;0.80;0.70;;;;;;;-143.84;79.79;45325.19;5089047;28;20204;-55
2024/01/09 09:08:21;;;;;;;0.80;0.63;;;;;;;-143.84;79.90;45336.59;5089188;28;20637;-56
2024/01/09 09:10:48;;;;;;;0.80;0.57;;;;;;;-143.84;80.24;45296.63;5089142;28;20239;-56
2024/01/09 09:13:15;;;;;;;0.80;0.50;;;;;;;-143.84;80.16;45330.91;5089167;28;20228;-56
2024/01/09 09:15:42;;;;;;;0.80;0.60;;;;;;;-143.84;80.36;45304.25;5089487;28;20182;-55
2024/01/09 09:18:10;;;;;;;1.02;0.93;;;;;;;-143.84;79.76;45311.84;5089215;28;20198;-55
2024/01/09 09:20:37;;;;;;;1.20;0.90;;;;;;;-143.84;80.16;45327.09;5088817;28;20794;-57
2024/01/09 09:23:06;;;;;;;0.80;0.50;;;;;;;-143.84;80.32;45308.03;5089274;28;20579;-56
2024/01/09 09:25:33;;;;;;;0.80;0.60;;;;;;;-143.84;80.80;45315.66;5089182;28;20194;-55
2024/01/09 09:28:00;;;;;;;0.80;0.50;;;;;;;-143.84;80.93;45311.84;5088969;28;20251;-56
2024/01/09 09:30:28;;;;;;;0.80;0.65;;;;;;;-143.84;81.27;45315.66;5088715;28;20193;-56
2024/01/09 09:32:58;;;;;;;0.80;0.60;;;;;;;-143.84;81.71;45321.38;5089335;28;20197;-56
2024/01/09 09:35:25;;;;;;;1.45;1.35;;;;;;;-143.84;81.91;45308.03;5088978;28;20204;-56
2024/01/09 09:37:52;;;;;;;0.80;0.50;;;;;;;-143.84;81.81;45313.75;5091109;28;20194;-56
2024/01/09 09:40:22;;;;;;;0.80;0.60;;;;;;;-143.84;81.81;45296.63;5092900;28;20282;-56
2024/01/09 09:42:53;;;;;;;0.80;0.50;;;;;;;-143.84;81.87;45289.00;5093045;28;20254;-56
2024/01/09 09:45:22;;;;;;;0.80;0.50;;;;;;;-143.84;81.82;45315.66;5093123;28;20204;-56
2024/01/09 09:47:51;;;;;;;0.80;0.60;;;;;;;-143.84;81.56;45302.34;5093210;28;20201;-56
2024/01/09 09:50:20;;;;;;;1.27;1.17;;;;;;;-143.84;82.00;45329.00;5092987;28;20227;-56
2024/01/09 09:52:48;;;;;;;1.15;1.05;;;;;;;-143.84;81.98;45338.50;5093072;28;20206;-55
2024/01/09 09:55:15;;;;;;;0.80;0.50;;;;;;;-143.84;81.56;45311.84;5092668;28;20204;-55
2024/01/09 09:57:44;;;;;;;1.38;0.93;;;;;;;-143.84;81.04;45319.47;5092797;28;20194;-56
2024/01/09 10:00:12;;;;;;;0.80;0.50;;;;;;;-143.84;80.46;45294.72;5092461;28;20319;-56
2024/01/09 10:02:45;;;;;;;0.80;0.50;;;;;;;-143.84;80.19;45330.91;5092474;28;20194;-55
2024/01/09 10:05:16;;;;;;;0.80;0.60;;;;;;;-143.84;80.18;45336.59;5092524;28;20208;-56
2024/01/09 10:07:46;;;;;;;0.80;0.60;;;;;;;-143.84;80.99;45336.59;5092491;28;20202;-56
2024/01/09 10:10:14;;;;;;;0.80;0.50;;;;;;;-143.84;81.19;45323.28;5092562;28;20216;-56
2024/01/09 10:12:43;;;;;;;1.40;0.80;;;;;;;-143.84;80.87;45329.00;5092329;28;20638;-56
2024/01/09 10:15:12;;;;;;;0.80;0.50;;;;;;;-143.84;80.73;45351.84;5092470;28;20202;-56
2024/01/09 10:17:40;;;;;;;0.80;0.50;;;;;;;-143.84;80.14;45308.03;5092183;28;20194;-55
2024/01/09 10:20:10;;;;;;;10.52;1.95;;;;;;;-143.84;79.97;45268.06;5092027;28;20237;-55
2024/01/09 10:22:38;;;;;;;0.80;0.52;;;;;;;-143.84;80.44;45309.94;5110622;28;20201;-56
2024/01/09 10:25:07;;;;;;;0.80;0.52;;;;;;;-143.84;80.50;45363.28;5112894;28;20642;-55
2024/01/09 10:27:36;;;;;;;0.80;0.60;;;;;;;-143.84;80.50;45325.19;5112358;28;20291;-58
2024/01/09 10:30:05;;;;;;;0.80;0.50;;;;;;;-143.84;80.92;45296.63;5112537;28;20215;-56
2024/01/09 10:32:33;;;;;;;0.80;0.50;;;;;;;-143.84;80.90;45311.84;5112163;28;20193;-56
2024/01/09 10:35:03;;;;;;;0.80;0.70;;;;;;;-143.84;80.99;45336.59;5112946;28;20228;-57
2024/01/09 10:37:30;;;;;;;0.80;0.60;;;;;;;-143.84;81.07;45313.75;5112379;28;20233;-57
2024/01/09 10:39:58;;;;;;;0.80;0.60;;;;;;;-143.84;81.31;45315.66;5112493;28;20229;-56
2024/01/09 10:42:26;;;;;;;0.80;0.73;;;;;;;-143.84;80.59;45290.91;5112043;28;20194;-56
2024/01/09 10:44:53;;;;;;;0.80;0.50;;;;;;;-143.84;80.99;45308.03;5112205;28;20230;-56
2024/01/09 10:47:23;;;;;;;0.95;0.85;;;;;;;-143.84;80.84;45302.34;5111965;28;20273;-57
2024/01/09 10:49:52;;;;;;;0.80;0.60;;;;;;;-143.84;80.62;45296.63;5111728;28;20204;-56
2024/01/09 10:52:19;;;;;;;0.80;0.70;;;;;;;-143.84;80.70;45292.81;5112325;28;20212;-56
2024/01/09 10:54:47;;;;;;;0.80;0.50;;;;;;;-143.84;80.74;45311.84;5112163;28;20200;-57
2024/01/09 10:57:16;;;;;;;0.80;0.50;;;;;;;-143.84;80.67;45330.91;5111688;28;20198;-57
2024/01/09 10:59:44;;;;;;;4.43;1.02;;;;;;;-143.84;80.77;45327.09;5110891;28;20213;-56
2024/01/09 11:02:15;;;;;;;0.80;0.50;;;;;;;-143.84;80.97;45319.47;5110908;28;20573;-56
2024/01/09 11:04:44;;;;;;;0.80;0.52;;;;;;;-143.84;80.76;45315.66;5111137;28;20204;-56
2024/01/09 11:07:14;;;;;;;0.80;0.50;;;;;;;-143.84;80.49;45289.00;5110902;28;20605;-56
2024/01/09 11:09:43;;;;;;;0.80;0.50;;;;;;;-143.84;80.78;45323.28;5110822;28;20746;-56
2024/01/09 11:12:15;;;;;;;0.80;0.60;;;;;;;-143.84;81.01;45323.28;5111442;28;20290;-56
2024/01/09 11:14:46;;;;;;;0.80;0.50;;;;;;;-143.84;81.07;45340.41;5111741;28;20197;-56
2024/01/09 11:17:15;;;;;;;0.80;0.50;;;;;;;-143.84;81.16;45323.28;5111880;28;20232;-56
2024/01/09 11:19:44;;;;;;;0.80;0.50;;;;;;;-143.84;81.48;45323.28;5111330;28;20301;-56